sensor_id;sensor_type;location;lat;lon;timestamp;P1;durP1;ratioP1;P2;durP2;ratioP2
80621;SDS011;69980;51.914;7.526;2023-07-02T00:01:44;6.43;;;3.63;;
80621;SDS011;69980;51.914;7.526;2023-07-02T00:04:10;5.30;;;3.45;;
80621;SDS011;69980;51.914;7.526;2023-07-02T00:06:35;4.97;;;3.53;;
80621;SDS011;69980;51.914;7.526;2023-07-02T00:09:00;5.10;;;3.60;;
80621;SDS011;69980;51.914;7.526;2023-07-02T00:11:26;4.72;;;3.72;;
80621;SDS011;69980;51.914;7.526;2023-07-02T00:13:51;4.80;;;3.20;;
80621;SDS011;69980;51.914;7.526;2023-07-02T00:16:16;5.15;;;3.15;;
80621;SDS011;69980;51.914;7.526;2023-07-02T00:18:42;5.30;;;3.78;;
80621;SDS011;69980;51.914;7.526;2023-07-02T00:21:07;4.22;;;3.30;;
80621;SDS011;69980;51.914;7.526;2023-07-02T00:23:32;7.65;;;4.05;;
80621;SDS011;69980;51.914;7.526;2023-07-02T00:25:57;6.50;;;4.35;;
80621;SDS011;69980;51.914;7.526;2023-07-02T00:28:23;8.40;;;4.10;;
80621;SDS011;69980;51.914;7.526;2023-07-02T00:30:48;6.72;;;4.40;;
80621;SDS011;69980;51.914;7.526;2023-07-02T00:33:14;6.53;;;4.82;;
80621;SDS011;69980;51.914;7.526;2023-07-02T00:35:40;6.00;;;4.72;;
80621;SDS011;69980;51.914;7.526;2023-07-02T00:38:05;7.78;;;5.30;;
80621;SDS011;69980;51.914;7.526;2023-07-02T00:40:31;6.07;;;5.22;;
80621;SDS011;69980;51.914;7.526;2023-07-02T00:42:56;6.90;;;5.00;;
80621;SDS011;69980;51.914;7.526;2023-07-02T00:45:21;5.30;;;4.75;;
80621;SDS011;69980;51.914;7.526;2023-07-02T00:47:47;9.57;;;5.40;;
80621;SDS011;69980;51.914;7.526;2023-07-02T00:50:12;8.45;;;5.78;;
80621;SDS011;69980;51.914;7.526;2023-07-02T00:52:37;7.45;;;5.55;;
80621;SDS011;69980;51.914;7.526;2023-07-02T00:55:03;7.80;;;5.57;;
80621;SDS011;69980;51.914;7.526;2023-07-02T00:57:28;7.40;;;5.35;;
80621;SDS011;69980;51.914;7.526;2023-07-02T00:59:54;6.35;;;5.40;;
80621;SDS011;69980;51.914;7.526;2023-07-02T01:02:19;8.52;;;6.00;;
80621;SDS011;69980;51.914;7.526;2023-07-02T01:04:44;8.48;;;5.43;;
80621;SDS011;69980;51.914;7.526;2023-07-02T01:07:12;10.77;;;5.75;;
80621;SDS011;69980;51.914;7.526;2023-07-02T01:09:37;5.85;;;4.70;;
80621;SDS011;69980;51.914;7.526;2023-07-02T01:12:03;8.65;;;5.63;;
80621;SDS011;69980;51.914;7.526;2023-07-02T01:14:33;7.55;;;5.20;;
80621;SDS011;69980;51.914;7.526;2023-07-02T01:17:06;7.88;;;5.30;;
80621;SDS011;69980;51.914;7.526;2023-07-02T01:22:16;9.75;;;6.10;;
80621;SDS011;69980;51.914;7.526;2023-07-02T01:24:42;8.05;;;5.15;;
80621;SDS011;69980;51.914;7.526;2023-07-02T01:27:07;7.25;;;5.43;;
80621;SDS011;69980;51.914;7.526;2023-07-02T01:29:33;7.70;;;5.50;;
80621;SDS011;69980;51.914;7.526;2023-07-02T01:31:58;8.32;;;6.03;;
80621;SDS011;69980;51.914;7.526;2023-07-02T01:34:23;8.23;;;6.05;;
80621;SDS011;69980;51.914;7.526;2023-07-02T01:36:49;6.60;;;5.78;;
80621;SDS011;69980;51.914;7.526;2023-07-02T01:39:14;10.18;;;6.03;;
80621;SDS011;69980;51.914;7.526;2023-07-02T01:41:52;10.85;;;6.43;;
80621;SDS011;69980;51.914;7.526;2023-07-02T01:44:20;7.97;;;5.85;;
80621;SDS011;69980;51.914;7.526;2023-07-02T01:46:47;8.35;;;5.85;;
80621;SDS011;69980;51.914;7.526;2023-07-02T01:49:12;9.32;;;6.05;;
80621;SDS011;69980;51.914;7.526;2023-07-02T01:51:38;10.13;;;6.28;;
80621;SDS011;69980;51.914;7.526;2023-07-02T01:54:03;7.22;;;6.00;;
80621;SDS011;69980;51.914;7.526;2023-07-02T01:56:28;6.78;;;5.68;;
80621;SDS011;69980;51.914;7.526;2023-07-02T01:58:54;7.72;;;6.20;;
80621;SDS011;69980;51.914;7.526;2023-07-02T02:01:19;9.15;;;6.18;;
80621;SDS011;69980;51.914;7.526;2023-07-02T02:03:45;10.38;;;6.13;;
80621;SDS011;69980;51.914;7.526;2023-07-02T02:06:10;9.10;;;6.28;;
80621;SDS011;69980;51.914;7.526;2023-07-02T02:08:35;10.68;;;6.50;;
80621;SDS011;69980;51.914;7.526;2023-07-02T02:11:01;11.25;;;6.43;;
80621;SDS011;69980;51.914;7.526;2023-07-02T02:13:26;10.90;;;6.32;;
80621;SDS011;69980;51.914;7.526;2023-07-02T02:15:51;8.65;;;6.03;;
80621;SDS011;69980;51.914;7.526;2023-07-02T02:18:17;10.07;;;6.57;;
80621;SDS011;69980;51.914;7.526;2023-07-02T02:20:42;11.48;;;6.75;;
80621;SDS011;69980;51.914;7.526;2023-07-02T02:23:07;10.30;;;6.65;;
80621;SDS011;69980;51.914;7.526;2023-07-02T02:25:33;11.80;;;6.57;;
80621;SDS011;69980;51.914;7.526;2023-07-02T02:27:58;10.77;;;6.40;;
80621;SDS011;69980;51.914;7.526;2023-07-02T02:30:23;10.63;;;6.22;;
80621;SDS011;69980;51.914;7.526;2023-07-02T02:32:48;10.00;;;6.30;;
80621;SDS011;69980;51.914;7.526;2023-07-02T02:35:14;10.70;;;6.32;;
80621;SDS011;69980;51.914;7.526;2023-07-02T02:37:39;10.45;;;5.80;;
80621;SDS011;69980;51.914;7.526;2023-07-02T02:40:05;10.73;;;6.47;;
80621;SDS011;69980;51.914;7.526;2023-07-02T02:42:32;9.52;;;6.20;;
80621;SDS011;69980;51.914;7.526;2023-07-02T02:44:57;10.63;;;5.55;;
80621;SDS011;69980;51.914;7.526;2023-07-02T02:47:22;10.48;;;6.15;;
80621;SDS011;69980;51.914;7.526;2023-07-02T02:49:47;10.70;;;6.00;;
80621;SDS011;69980;51.914;7.526;2023-07-02T02:52:13;10.95;;;5.90;;
80621;SDS011;69980;51.914;7.526;2023-07-02T02:54:38;17.90;;;6.80;;
80621;SDS011;69980;51.914;7.526;2023-07-02T02:57:03;9.63;;;6.10;;
80621;SDS011;69980;51.914;7.526;2023-07-02T02:59:29;14.20;;;6.03;;
80621;SDS011;69980;51.914;7.526;2023-07-02T03:01:54;12.20;;;6.80;;
80621;SDS011;69980;51.914;7.526;2023-07-02T03:04:19;13.98;;;6.60;;
80621;SDS011;69980;51.914;7.526;2023-07-02T03:06:45;12.05;;;7.45;;
80621;SDS011;69980;51.914;7.526;2023-07-02T03:09:10;13.55;;;7.20;;
80621;SDS011;69980;51.914;7.526;2023-07-02T03:11:35;13.93;;;6.85;;
80621;SDS011;69980;51.914;7.526;2023-07-02T03:14:00;12.25;;;6.97;;
80621;SDS011;69980;51.914;7.526;2023-07-02T03:16:26;17.58;;;8.02;;
80621;SDS011;69980;51.914;7.526;2023-07-02T03:18:51;12.05;;;7.32;;
80621;SDS011;69980;51.914;7.526;2023-07-02T03:21:16;13.65;;;7.72;;
80621;SDS011;69980;51.914;7.526;2023-07-02T03:23:41;17.67;;;7.93;;
80621;SDS011;69980;51.914;7.526;2023-07-02T03:26:07;14.40;;;8.25;;
80621;SDS011;69980;51.914;7.526;2023-07-02T03:28:32;15.02;;;7.85;;
80621;SDS011;69980;51.914;7.526;2023-07-02T03:30:57;17.02;;;9.05;;
80621;SDS011;69980;51.914;7.526;2023-07-02T03:33:23;13.15;;;8.10;;
80621;SDS011;69980;51.914;7.526;2023-07-02T03:35:48;15.57;;;7.88;;
80621;SDS011;69980;51.914;7.526;2023-07-02T03:38:13;15.60;;;8.57;;
80621;SDS011;69980;51.914;7.526;2023-07-02T03:40:38;16.08;;;8.25;;
80621;SDS011;69980;51.914;7.526;2023-07-02T03:43:04;14.23;;;8.07;;
80621;SDS011;69980;51.914;7.526;2023-07-02T03:45:29;13.38;;;8.13;;
80621;SDS011;69980;51.914;7.526;2023-07-02T03:47:54;15.68;;;8.38;;
80621;SDS011;69980;51.914;7.526;2023-07-02T03:50:20;13.02;;;8.63;;
80621;SDS011;69980;51.914;7.526;2023-07-02T03:52:45;13.00;;;7.88;;
80621;SDS011;69980;51.914;7.526;2023-07-02T03:55:10;14.27;;;7.68;;
80621;SDS011;69980;51.914;7.526;2023-07-02T03:57:36;14.18;;;7.90;;
80621;SDS011;69980;51.914;7.526;2023-07-02T04:00:01;12.27;;;7.50;;
80621;SDS011;69980;51.914;7.526;2023-07-02T04:02:27;13.55;;;7.13;;
80621;SDS011;69980;51.914;7.526;2023-07-02T04:04:52;12.35;;;7.00;;
80621;SDS011;69980;51.914;7.526;2023-07-02T04:07:17;18.05;;;7.93;;
80621;SDS011;69980;51.914;7.526;2023-07-02T04:09:43;14.73;;;7.55;;
80621;SDS011;69980;51.914;7.526;2023-07-02T04:12:08;16.88;;;7.65;;
80621;SDS011;69980;51.914;7.526;2023-07-02T04:14:34;13.68;;;7.32;;
80621;SDS011;69980;51.914;7.526;2023-07-02T04:17:01;12.15;;;7.53;;
80621;SDS011;69980;51.914;7.526;2023-07-02T04:19:26;13.68;;;6.93;;
80621;SDS011;69980;51.914;7.526;2023-07-02T04:21:52;14.85;;;7.05;;
80621;SDS011;69980;51.914;7.526;2023-07-02T04:24:17;14.75;;;6.57;;
80621;SDS011;69980;51.914;7.526;2023-07-02T04:26:42;13.85;;;6.22;;
80621;SDS011;69980;51.914;7.526;2023-07-02T04:29:08;13.13;;;6.53;;
80621;SDS011;69980;51.914;7.526;2023-07-02T04:31:34;11.02;;;6.05;;
80621;SDS011;69980;51.914;7.526;2023-07-02T04:33:59;13.02;;;6.30;;
80621;SDS011;69980;51.914;7.526;2023-07-02T04:36:25;13.13;;;6.20;;
80621;SDS011;69980;51.914;7.526;2023-07-02T04:38:50;14.88;;;6.40;;
80621;SDS011;69980;51.914;7.526;2023-07-02T04:41:17;12.30;;;6.72;;
80621;SDS011;69980;51.914;7.526;2023-07-02T04:43:44;13.73;;;6.13;;
80621;SDS011;69980;51.914;7.526;2023-07-02T04:46:09;13.32;;;6.05;;
80621;SDS011;69980;51.914;7.526;2023-07-02T04:48:34;13.27;;;6.03;;
80621;SDS011;69980;51.914;7.526;2023-07-02T04:51:00;13.35;;;6.47;;
80621;SDS011;69980;51.914;7.526;2023-07-02T04:53:25;14.52;;;6.05;;
80621;SDS011;69980;51.914;7.526;2023-07-02T04:55:50;11.50;;;5.72;;
80621;SDS011;69980;51.914;7.526;2023-07-02T04:58:15;13.73;;;5.97;;
80621;SDS011;69980;51.914;7.526;2023-07-02T05:00:41;13.68;;;6.07;;
80621;SDS011;69980;51.914;7.526;2023-07-02T05:03:06;9.80;;;5.32;;
80621;SDS011;69980;51.914;7.526;2023-07-02T05:05:31;13.30;;;5.43;;
80621;SDS011;69980;51.914;7.526;2023-07-02T05:07:57;13.02;;;5.53;;
80621;SDS011;69980;51.914;7.526;2023-07-02T05:10:22;12.30;;;5.90;;
80621;SDS011;69980;51.914;7.526;2023-07-02T05:12:47;15.48;;;5.85;;
80621;SDS011;69980;51.914;7.526;2023-07-02T05:15:12;15.50;;;5.78;;
80621;SDS011;69980;51.914;7.526;2023-07-02T05:17:38;11.43;;;5.60;;
80621;SDS011;69980;51.914;7.526;2023-07-02T05:20:03;12.75;;;5.47;;
80621;SDS011;69980;51.914;7.526;2023-07-02T05:22:29;13.80;;;5.90;;
80621;SDS011;69980;51.914;7.526;2023-07-02T05:24:54;12.48;;;5.82;;
80621;SDS011;69980;51.914;7.526;2023-07-02T05:27:19;16.13;;;5.97;;
80621;SDS011;69980;51.914;7.526;2023-07-02T05:29:45;14.57;;;5.93;;
80621;SDS011;69980;51.914;7.526;2023-07-02T05:32:10;13.27;;;5.78;;
80621;SDS011;69980;51.914;7.526;2023-07-02T05:34:36;16.75;;;6.03;;
80621;SDS011;69980;51.914;7.526;2023-07-02T05:37:01;17.77;;;6.25;;
80621;SDS011;69980;51.914;7.526;2023-07-02T05:39:26;13.00;;;5.88;;
80621;SDS011;69980;51.914;7.526;2023-07-02T05:41:52;14.95;;;5.95;;
80621;SDS011;69980;51.914;7.526;2023-07-02T05:44:17;12.93;;;5.90;;
80621;SDS011;69980;51.914;7.526;2023-07-02T05:46:42;22.05;;;7.03;;
80621;SDS011;69980;51.914;7.526;2023-07-02T05:49:07;14.82;;;6.40;;
80621;SDS011;69980;51.914;7.526;2023-07-02T05:51:33;12.77;;;6.20;;
80621;SDS011;69980;51.914;7.526;2023-07-02T05:53:58;16.17;;;6.22;;
80621;SDS011;69980;51.914;7.526;2023-07-02T05:56:23;14.70;;;6.28;;
80621;SDS011;69980;51.914;7.526;2023-07-02T05:58:49;15.13;;;6.38;;
80621;SDS011;69980;51.914;7.526;2023-07-02T06:01:14;14.48;;;5.88;;
80621;SDS011;69980;51.914;7.526;2023-07-02T06:03:39;13.43;;;6.57;;
80621;SDS011;69980;51.914;7.526;2023-07-02T06:06:05;12.95;;;5.93;;
80621;SDS011;69980;51.914;7.526;2023-07-02T06:08:30;14.88;;;5.90;;
80621;SDS011;69980;51.914;7.526;2023-07-02T06:10:55;14.75;;;6.22;;
80621;SDS011;69980;51.914;7.526;2023-07-02T06:13:21;17.88;;;6.30;;
80621;SDS011;69980;51.914;7.526;2023-07-02T06:15:46;15.30;;;5.97;;
80621;SDS011;69980;51.914;7.526;2023-07-02T06:18:11;16.60;;;5.68;;
80621;SDS011;69980;51.914;7.526;2023-07-02T06:20:36;15.02;;;5.90;;
80621;SDS011;69980;51.914;7.526;2023-07-02T06:23:02;16.42;;;6.22;;
80621;SDS011;69980;51.914;7.526;2023-07-02T06:25:27;13.55;;;6.72;;
80621;SDS011;69980;51.914;7.526;2023-07-02T06:27:52;14.50;;;6.75;;
80621;SDS011;69980;51.914;7.526;2023-07-02T06:30:18;13.85;;;6.65;;
80621;SDS011;69980;51.914;7.526;2023-07-02T06:32:43;14.55;;;6.80;;
80621;SDS011;69980;51.914;7.526;2023-07-02T06:35:08;17.70;;;6.88;;
80621;SDS011;69980;51.914;7.526;2023-07-02T06:37:33;17.20;;;7.30;;
80621;SDS011;69980;51.914;7.526;2023-07-02T06:39:59;17.17;;;6.95;;
80621;SDS011;69980;51.914;7.526;2023-07-02T06:42:24;14.02;;;6.47;;
80621;SDS011;69980;51.914;7.526;2023-07-02T06:44:50;15.70;;;7.18;;
80621;SDS011;69980;51.914;7.526;2023-07-02T06:47:15;17.90;;;6.53;;
80621;SDS011;69980;51.914;7.526;2023-07-02T06:49:40;15.95;;;6.68;;
80621;SDS011;69980;51.914;7.526;2023-07-02T06:52:06;14.27;;;6.95;;
80621;SDS011;69980;51.914;7.526;2023-07-02T06:54:31;18.17;;;6.45;;
80621;SDS011;69980;51.914;7.526;2023-07-02T06:56:56;21.85;;;6.75;;
80621;SDS011;69980;51.914;7.526;2023-07-02T06:59:22;17.60;;;6.95;;
80621;SDS011;69980;51.914;7.526;2023-07-02T07:01:48;16.05;;;6.75;;
80621;SDS011;69980;51.914;7.526;2023-07-02T07:04:14;15.55;;;6.32;;
80621;SDS011;69980;51.914;7.526;2023-07-02T07:06:39;15.00;;;6.93;;
80621;SDS011;69980;51.914;7.526;2023-07-02T07:09:04;15.20;;;6.38;;
80621;SDS011;69980;51.914;7.526;2023-07-02T07:11:30;15.15;;;6.72;;
80621;SDS011;69980;51.914;7.526;2023-07-02T07:13:55;14.38;;;6.38;;
80621;SDS011;69980;51.914;7.526;2023-07-02T07:16:20;20.63;;;7.40;;
80621;SDS011;69980;51.914;7.526;2023-07-02T07:18:46;15.10;;;6.65;;
80621;SDS011;69980;51.914;7.526;2023-07-02T07:21:11;17.15;;;6.32;;
80621;SDS011;69980;51.914;7.526;2023-07-02T07:23:36;15.95;;;6.85;;
80621;SDS011;69980;51.914;7.526;2023-07-02T07:26:02;16.05;;;6.93;;
80621;SDS011;69980;51.914;7.526;2023-07-02T07:28:27;15.88;;;6.53;;
80621;SDS011;69980;51.914;7.526;2023-07-02T07:30:52;13.75;;;6.55;;
80621;SDS011;69980;51.914;7.526;2023-07-02T07:33:17;23.83;;;7.82;;
80621;SDS011;69980;51.914;7.526;2023-07-02T07:35:43;18.25;;;6.78;;
80621;SDS011;69980;51.914;7.526;2023-07-02T07:38:08;15.80;;;6.63;;
80621;SDS011;69980;51.914;7.526;2023-07-02T07:40:33;17.40;;;6.60;;
80621;SDS011;69980;51.914;7.526;2023-07-02T07:42:59;12.18;;;6.18;;
80621;SDS011;69980;51.914;7.526;2023-07-02T07:45:24;16.85;;;6.53;;
80621;SDS011;69980;51.914;7.526;2023-07-02T07:47:49;17.33;;;6.05;;
80621;SDS011;69980;51.914;7.526;2023-07-02T07:50:14;14.52;;;6.22;;
80621;SDS011;69980;51.914;7.526;2023-07-02T07:52:40;12.07;;;5.82;;
80621;SDS011;69980;51.914;7.526;2023-07-02T07:55:07;16.25;;;6.60;;
80621;SDS011;69980;51.914;7.526;2023-07-02T07:57:33;14.60;;;5.97;;
80621;SDS011;69980;51.914;7.526;2023-07-02T07:59:59;13.57;;;6.22;;
80621;SDS011;69980;51.914;7.526;2023-07-02T08:02:24;11.95;;;5.25;;
80621;SDS011;69980;51.914;7.526;2023-07-02T08:04:50;16.02;;;6.38;;
80621;SDS011;69980;51.914;7.526;2023-07-02T08:07:15;14.55;;;5.88;;
80621;SDS011;69980;51.914;7.526;2023-07-02T08:09:40;11.48;;;5.72;;
80621;SDS011;69980;51.914;7.526;2023-07-02T08:12:06;15.35;;;5.70;;
80621;SDS011;69980;51.914;7.526;2023-07-02T08:14:31;15.20;;;5.50;;
80621;SDS011;69980;51.914;7.526;2023-07-02T08:16:56;13.07;;;5.18;;
80621;SDS011;69980;51.914;7.526;2023-07-02T08:19:22;15.43;;;5.75;;
80621;SDS011;69980;51.914;7.526;2023-07-02T08:21:47;9.65;;;5.57;;
80621;SDS011;69980;51.914;7.526;2023-07-02T08:24:12;10.10;;;5.15;;
80621;SDS011;69980;51.914;7.526;2023-07-02T08:26:38;10.77;;;5.45;;
80621;SDS011;69980;51.914;7.526;2023-07-02T08:29:03;12.70;;;5.50;;
80621;SDS011;69980;51.914;7.526;2023-07-02T08:31:28;10.48;;;4.70;;
80621;SDS011;69980;51.914;7.526;2023-07-02T08:33:54;12.90;;;5.28;;
80621;SDS011;69980;51.914;7.526;2023-07-02T08:36:19;10.07;;;4.70;;
80621;SDS011;69980;51.914;7.526;2023-07-02T08:38:44;10.65;;;5.28;;
80621;SDS011;69980;51.914;7.526;2023-07-02T08:41:09;12.68;;;5.20;;
80621;SDS011;69980;51.914;7.526;2023-07-02T08:43:35;12.68;;;5.00;;
80621;SDS011;69980;51.914;7.526;2023-07-02T08:46:01;12.52;;;5.47;;
80621;SDS011;69980;51.914;7.526;2023-07-02T08:48:26;12.60;;;4.93;;
80621;SDS011;69980;51.914;7.526;2023-07-02T08:50:52;13.15;;;5.05;;
80621;SDS011;69980;51.914;7.526;2023-07-02T08:53:17;11.73;;;5.20;;
80621;SDS011;69980;51.914;7.526;2023-07-02T08:55:42;12.02;;;5.47;;
80621;SDS011;69980;51.914;7.526;2023-07-02T08:58:08;12.15;;;4.95;;
80621;SDS011;69980;51.914;7.526;2023-07-02T09:00:33;10.95;;;5.05;;
80621;SDS011;69980;51.914;7.526;2023-07-02T09:02:58;14.48;;;5.63;;
80621;SDS011;69980;51.914;7.526;2023-07-02T09:05:23;11.88;;;4.90;;
80621;SDS011;69980;51.914;7.526;2023-07-02T09:07:50;11.90;;;5.07;;
80621;SDS011;69980;51.914;7.526;2023-07-02T09:10:25;11.25;;;5.35;;
80621;SDS011;69980;51.914;7.526;2023-07-02T09:13:06;11.07;;;4.63;;
80621;SDS011;69980;51.914;7.526;2023-07-02T09:15:35;12.15;;;4.80;;
80621;SDS011;69980;51.914;7.526;2023-07-02T09:18:02;13.00;;;4.82;;
80621;SDS011;69980;51.914;7.526;2023-07-02T09:20:32;9.23;;;4.78;;
80621;SDS011;69980;51.914;7.526;2023-07-02T09:22:58;11.15;;;5.00;;
80621;SDS011;69980;51.914;7.526;2023-07-02T09:25:33;9.38;;;4.88;;
80621;SDS011;69980;51.914;7.526;2023-07-02T09:27:59;9.60;;;4.97;;
80621;SDS011;69980;51.914;7.526;2023-07-02T09:30:24;8.90;;;4.68;;
80621;SDS011;69980;51.914;7.526;2023-07-02T09:32:49;11.02;;;5.00;;
80621;SDS011;69980;51.914;7.526;2023-07-02T09:35:15;12.32;;;5.35;;
80621;SDS011;69980;51.914;7.526;2023-07-02T09:37:43;11.57;;;4.93;;
80621;SDS011;69980;51.914;7.526;2023-07-02T09:40:08;11.48;;;5.18;;
80621;SDS011;69980;51.914;7.526;2023-07-02T09:42:38;9.35;;;4.93;;
80621;SDS011;69980;51.914;7.526;2023-07-02T09:45:04;13.45;;;5.60;;
80621;SDS011;69980;51.914;7.526;2023-07-02T09:47:33;12.57;;;5.80;;
80621;SDS011;69980;51.914;7.526;2023-07-02T09:50:03;11.45;;;5.18;;
80621;SDS011;69980;51.914;7.526;2023-07-02T09:52:29;12.65;;;5.63;;
80621;SDS011;69980;51.914;7.526;2023-07-02T09:54:55;11.88;;;5.82;;
80621;SDS011;69980;51.914;7.526;2023-07-02T09:57:20;14.65;;;5.30;;
80621;SDS011;69980;51.914;7.526;2023-07-02T09:59:45;12.63;;;5.28;;
80621;SDS011;69980;51.914;7.526;2023-07-02T10:02:12;13.40;;;5.68;;
80621;SDS011;69980;51.914;7.526;2023-07-02T10:07:06;11.20;;;5.35;;
80621;SDS011;69980;51.914;7.526;2023-07-02T10:09:49;12.18;;;5.63;;
80621;SDS011;69980;51.914;7.526;2023-07-02T10:12:32;9.32;;;4.80;;
80621;SDS011;69980;51.914;7.526;2023-07-02T10:14:58;12.35;;;5.20;;
80621;SDS011;69980;51.914;7.526;2023-07-02T10:19:55;12.27;;;5.38;;
80621;SDS011;69980;51.914;7.526;2023-07-02T10:22:22;14.23;;;6.00;;
80621;SDS011;69980;51.914;7.526;2023-07-02T10:24:55;13.82;;;5.25;;
80621;SDS011;69980;51.914;7.526;2023-07-02T10:27:20;10.30;;;4.93;;
80621;SDS011;69980;51.914;7.526;2023-07-02T10:29:49;8.77;;;4.47;;
80621;SDS011;69980;51.914;7.526;2023-07-02T10:32:25;11.70;;;4.85;;
80621;SDS011;69980;51.914;7.526;2023-07-02T10:34:51;10.20;;;4.70;;
80621;SDS011;69980;51.914;7.526;2023-07-02T10:37:16;14.45;;;5.55;;
80621;SDS011;69980;51.914;7.526;2023-07-02T10:39:41;10.52;;;5.30;;
80621;SDS011;69980;51.914;7.526;2023-07-02T10:42:07;11.88;;;5.25;;
80621;SDS011;69980;51.914;7.526;2023-07-02T10:44:33;10.32;;;5.13;;
80621;SDS011;69980;51.914;7.526;2023-07-02T10:46:58;8.85;;;4.90;;
80621;SDS011;69980;51.914;7.526;2023-07-02T10:49:29;9.70;;;5.35;;
80621;SDS011;69980;51.914;7.526;2023-07-02T10:52:02;11.10;;;4.95;;
80621;SDS011;69980;51.914;7.526;2023-07-02T10:54:44;13.57;;;4.82;;
80621;SDS011;69980;51.914;7.526;2023-07-02T10:57:10;12.10;;;5.35;;
80621;SDS011;69980;51.914;7.526;2023-07-02T10:59:38;10.43;;;5.22;;
80621;SDS011;69980;51.914;7.526;2023-07-02T11:02:03;9.68;;;4.65;;
80621;SDS011;69980;51.914;7.526;2023-07-02T11:04:30;9.60;;;4.90;;
80621;SDS011;69980;51.914;7.526;2023-07-02T11:06:55;10.38;;;4.95;;
80621;SDS011;69980;51.914;7.526;2023-07-02T11:09:21;7.65;;;4.50;;
80621;SDS011;69980;51.914;7.526;2023-07-02T11:12:01;9.98;;;4.80;;
80621;SDS011;69980;51.914;7.526;2023-07-02T11:14:33;9.02;;;5.00;;
80621;SDS011;69980;51.914;7.526;2023-07-02T11:17:03;12.35;;;4.78;;
80621;SDS011;69980;51.914;7.526;2023-07-02T11:19:29;12.82;;;4.90;;
80621;SDS011;69980;51.914;7.526;2023-07-02T11:21:55;10.38;;;4.45;;
80621;SDS011;69980;51.914;7.526;2023-07-02T11:24:34;9.02;;;4.70;;
80621;SDS011;69980;51.914;7.526;2023-07-02T11:27:01;9.50;;;4.65;;
80621;SDS011;69980;51.914;7.526;2023-07-02T11:29:30;9.45;;;4.78;;
80621;SDS011;69980;51.914;7.526;2023-07-02T11:32:06;12.95;;;5.28;;
80621;SDS011;69980;51.914;7.526;2023-07-02T11:34:32;11.48;;;4.95;;
80621;SDS011;69980;51.914;7.526;2023-07-02T11:36:57;8.52;;;4.40;;
80621;SDS011;69980;51.914;7.526;2023-07-02T11:39:23;8.95;;;4.70;;
80621;SDS011;69980;51.914;7.526;2023-07-02T11:41:49;8.90;;;4.60;;
80621;SDS011;69980;51.914;7.526;2023-07-02T11:44:14;11.15;;;4.45;;
80621;SDS011;69980;51.914;7.526;2023-07-02T11:46:39;10.75;;;4.72;;
80621;SDS011;69980;51.914;7.526;2023-07-02T11:49:05;9.10;;;4.80;;
80621;SDS011;69980;51.914;7.526;2023-07-02T11:51:30;8.93;;;4.80;;
80621;SDS011;69980;51.914;7.526;2023-07-02T11:53:56;9.60;;;4.45;;
80621;SDS011;69980;51.914;7.526;2023-07-02T11:56:21;10.18;;;4.75;;
80621;SDS011;69980;51.914;7.526;2023-07-02T11:58:47;10.73;;;4.45;;
80621;SDS011;69980;51.914;7.526;2023-07-02T12:01:12;10.25;;;4.55;;
80621;SDS011;69980;51.914;7.526;2023-07-02T12:03:37;10.40;;;4.80;;
80621;SDS011;69980;51.914;7.526;2023-07-02T12:06:03;11.80;;;4.68;;
80621;SDS011;69980;51.914;7.526;2023-07-02T12:08:28;11.15;;;4.60;;
80621;SDS011;69980;51.914;7.526;2023-07-02T12:10:53;10.73;;;4.57;;
80621;SDS011;69980;51.914;7.526;2023-07-02T12:13:18;8.73;;;4.22;;
80621;SDS011;69980;51.914;7.526;2023-07-02T12:15:44;15.93;;;4.82;;
80621;SDS011;69980;51.914;7.526;2023-07-02T12:18:09;10.05;;;4.80;;
80621;SDS011;69980;51.914;7.526;2023-07-02T12:20:35;9.93;;;4.65;;
80621;SDS011;69980;51.914;7.526;2023-07-02T12:23:00;10.35;;;4.82;;
80621;SDS011;69980;51.914;7.526;2023-07-02T12:25:25;10.88;;;4.55;;
80621;SDS011;69980;51.914;7.526;2023-07-02T12:27:51;8.88;;;4.70;;
80621;SDS011;69980;51.914;7.526;2023-07-02T12:30:16;12.23;;;4.60;;
80621;SDS011;69980;51.914;7.526;2023-07-02T12:32:42;7.65;;;4.35;;
80621;SDS011;69980;51.914;7.526;2023-07-02T12:35:07;8.25;;;4.70;;
80621;SDS011;69980;51.914;7.526;2023-07-02T12:37:33;7.45;;;4.22;;
80621;SDS011;69980;51.914;7.526;2023-07-02T12:39:58;7.95;;;4.28;;
80621;SDS011;69980;51.914;7.526;2023-07-02T12:42:23;12.50;;;4.88;;
80621;SDS011;69980;51.914;7.526;2023-07-02T12:44:49;11.05;;;4.40;;
80621;SDS011;69980;51.914;7.526;2023-07-02T12:47:14;10.93;;;4.80;;
80621;SDS011;69980;51.914;7.526;2023-07-02T12:49:39;10.48;;;4.53;;
80621;SDS011;69980;51.914;7.526;2023-07-02T12:52:04;11.35;;;4.45;;
80621;SDS011;69980;51.914;7.526;2023-07-02T12:54:30;10.27;;;4.90;;
80621;SDS011;69980;51.914;7.526;2023-07-02T12:56:55;12.63;;;4.57;;
80621;SDS011;69980;51.914;7.526;2023-07-02T12:59:20;8.52;;;4.68;;
80621;SDS011;69980;51.914;7.526;2023-07-02T13:01:46;9.70;;;5.05;;
80621;SDS011;69980;51.914;7.526;2023-07-02T13:04:11;10.68;;;4.53;;
80621;SDS011;69980;51.914;7.526;2023-07-02T13:06:37;7.85;;;4.15;;
80621;SDS011;69980;51.914;7.526;2023-07-02T13:09:02;11.35;;;4.43;;
80621;SDS011;69980;51.914;7.526;2023-07-02T13:11:27;10.57;;;4.53;;
80621;SDS011;69980;51.914;7.526;2023-07-02T13:13:53;11.30;;;4.60;;
80621;SDS011;69980;51.914;7.526;2023-07-02T13:16:18;12.77;;;4.43;;
80621;SDS011;69980;51.914;7.526;2023-07-02T13:18:43;8.73;;;4.35;;
80621;SDS011;69980;51.914;7.526;2023-07-02T13:21:08;10.13;;;4.40;;
80621;SDS011;69980;51.914;7.526;2023-07-02T13:23:34;10.43;;;4.60;;
80621;SDS011;69980;51.914;7.526;2023-07-02T13:25:59;11.40;;;4.45;;
80621;SDS011;69980;51.914;7.526;2023-07-02T13:28:24;9.98;;;4.90;;
80621;SDS011;69980;51.914;7.526;2023-07-02T13:30:50;9.95;;;4.68;;
80621;SDS011;69980;51.914;7.526;2023-07-02T13:33:15;9.45;;;4.75;;
80621;SDS011;69980;51.914;7.526;2023-07-02T13:35:40;10.63;;;4.53;;
80621;SDS011;69980;51.914;7.526;2023-07-02T13:38:05;13.25;;;4.60;;
80621;SDS011;69980;51.914;7.526;2023-07-02T13:40:31;10.75;;;4.53;;
80621;SDS011;69980;51.914;7.526;2023-07-02T13:42:56;11.13;;;4.63;;
80621;SDS011;69980;51.914;7.526;2023-07-02T13:45:21;11.25;;;4.85;;
80621;SDS011;69980;51.914;7.526;2023-07-02T13:47:47;8.70;;;4.25;;
80621;SDS011;69980;51.914;7.526;2023-07-02T13:50:12;9.73;;;4.43;;
80621;SDS011;69980;51.914;7.526;2023-07-02T13:52:37;9.23;;;4.78;;
80621;SDS011;69980;51.914;7.526;2023-07-02T13:55:03;12.02;;;4.30;;
80621;SDS011;69980;51.914;7.526;2023-07-02T13:57:29;10.20;;;4.50;;
80621;SDS011;69980;51.914;7.526;2023-07-02T13:59:54;11.25;;;5.03;;
80621;SDS011;69980;51.914;7.526;2023-07-02T14:02:19;8.75;;;4.80;;
80621;SDS011;69980;51.914;7.526;2023-07-02T14:04:45;9.75;;;4.63;;
80621;SDS011;69980;51.914;7.526;2023-07-02T14:07:11;9.55;;;4.22;;
80621;SDS011;69980;51.914;7.526;2023-07-02T14:09:36;9.82;;;4.97;;
80621;SDS011;69980;51.914;7.526;2023-07-02T14:12:02;8.35;;;4.35;;
80621;SDS011;69980;51.914;7.526;2023-07-02T14:14:27;9.15;;;4.75;;
80621;SDS011;69980;51.914;7.526;2023-07-02T14:16:52;10.30;;;4.65;;
80621;SDS011;69980;51.914;7.526;2023-07-02T14:19:18;9.63;;;4.35;;
80621;SDS011;69980;51.914;7.526;2023-07-02T14:21:43;11.00;;;4.50;;
80621;SDS011;69980;51.914;7.526;2023-07-02T14:24:08;10.00;;;4.70;;
80621;SDS011;69980;51.914;7.526;2023-07-02T14:26:33;11.70;;;4.80;;
80621;SDS011;69980;51.914;7.526;2023-07-02T14:28:59;9.85;;;4.47;;
80621;SDS011;69980;51.914;7.526;2023-07-02T14:31:24;10.25;;;4.28;;
80621;SDS011;69980;51.914;7.526;2023-07-02T14:33:49;10.10;;;4.53;;
80621;SDS011;69980;51.914;7.526;2023-07-02T14:36:15;9.98;;;4.57;;
80621;SDS011;69980;51.914;7.526;2023-07-02T14:38:40;9.75;;;4.60;;